Terminal Aerodrome Forecast
Issued by NWS Wilmington, OH

Current Version | Previous Version | Graphics & Text | Print | Product List | Glossary On
Versions: 1 2 3 4 5 6 7 8 9 10 11 12 13 14 15 16 17 18
000
FTUS41 KILN 270532
TAFDAY
TAF
KDAY 270532Z 2706/2806 16008KT P6SM VCSH SCT080
     FM270900 15004KT P6SM BKN025
      TEMPO 2709/2713 BKN015
     FM271500 29006KT P6SM BKN035
     FM280100 35004KT P6SM SCT080=

USA.gov is the U.S. government's official web portal to all federal, state and local government web resources and services.